sensor_id;sensor_type;location;lat;lon;timestamp;temperature;humidity
35700;DHT22;21818;51.078;12.108;2023-04-01T00:02:07;14.70;82.10
35700;DHT22;21818;51.078;12.108;2023-04-01T00:04:33;14.70;82.10
35700;DHT22;21818;51.078;12.108;2023-04-01T00:06:59;14.70;82.20
35700;DHT22;21818;51.078;12.108;2023-04-01T00:09:25;14.70;82.10
35700;DHT22;21818;51.078;12.108;2023-04-01T00:11:51;14.70;82.20
35700;DHT22;21818;51.078;12.108;2023-04-01T00:14:16;14.70;82.30
35700;DHT22;21818;51.078;12.108;2023-04-01T00:16:42;14.70;82.20
35700;DHT22;21818;51.078;12.108;2023-04-01T00:19:08;14.80;82.20
35700;DHT22;21818;51.078;12.108;2023-04-01T00:21:33;14.70;82.10
35700;DHT22;21818;51.078;12.108;2023-04-01T00:23:59;14.80;82.10
35700;DHT22;21818;51.078;12.108;2023-04-01T00:26:25;14.80;82.10
35700;DHT22;21818;51.078;12.108;2023-04-01T00:28:52;14.80;82.00
35700;DHT22;21818;51.078;12.108;2023-04-01T00:31:17;14.70;82.00
35700;DHT22;21818;51.078;12.108;2023-04-01T00:33:43;14.70;82.20
35700;DHT22;21818;51.078;12.108;2023-04-01T00:36:17;14.60;82.20
35700;DHT22;21818;51.078;12.108;2023-04-01T00:38:43;14.60;82.20
35700;DHT22;21818;51.078;12.108;2023-04-01T00:41:10;14.50;82.40
35700;DHT22;21818;51.078;12.108;2023-04-01T00:43:40;14.50;82.50
35700;DHT22;21818;51.078;12.108;2023-04-01T00:46:06;14.60;82.50
35700;DHT22;21818;51.078;12.108;2023-04-01T00:48:36;14.60;82.40
35700;DHT22;21818;51.078;12.108;2023-04-01T00:51:11;14.60;82.50
35700;DHT22;21818;51.078;12.108;2023-04-01T00:53:43;14.60;82.60
35700;DHT22;21818;51.078;12.108;2023-04-01T00:56:18;14.50;82.60
35700;DHT22;21818;51.078;12.108;2023-04-01T00:58:49;14.50;82.80
35700;DHT22;21818;51.078;12.108;2023-04-01T01:01:15;14.50;82.80
35700;DHT22;21818;51.078;12.108;2023-04-01T01:03:41;14.50;82.80
35700;DHT22;21818;51.078;12.108;2023-04-01T01:09:14;14.30;82.90
35700;DHT22;21818;51.078;12.108;2023-04-01T01:14:28;14.40;83.10
35700;DHT22;21818;51.078;12.108;2023-04-01T01:17:48;14.30;83.00
35700;DHT22;21818;51.078;12.108;2023-04-01T01:20:10;14.40;83.00
35700;DHT22;21818;51.078;12.108;2023-04-01T01:31:07;14.50;82.60
35700;DHT22;21818;51.078;12.108;2023-04-01T01:36:48;14.50;82.60
35700;DHT22;21818;51.078;12.108;2023-04-01T01:39:17;14.50;82.60
35700;DHT22;21818;51.078;12.108;2023-04-01T01:41:45;14.50;82.50
35700;DHT22;21818;51.078;12.108;2023-04-01T01:44:14;14.40;82.60
35700;DHT22;21818;51.078;12.108;2023-04-01T01:46:42;14.50;82.70
35700;DHT22;21818;51.078;12.108;2023-04-01T01:49:10;14.50;82.50
35700;DHT22;21818;51.078;12.108;2023-04-01T01:51:37;14.50;82.60
35700;DHT22;21818;51.078;12.108;2023-04-01T01:54:04;14.50;82.70
35700;DHT22;21818;51.078;12.108;2023-04-01T01:56:30;14.50;82.60
35700;DHT22;21818;51.078;12.108;2023-04-01T01:59:03;14.50;82.60
35700;DHT22;21818;51.078;12.108;2023-04-01T02:01:33;14.40;82.60
35700;DHT22;21818;51.078;12.108;2023-04-01T02:04:01;14.50;82.60
35700;DHT22;21818;51.078;12.108;2023-04-01T02:06:30;14.40;83.00
35700;DHT22;21818;51.078;12.108;2023-04-01T02:09:02;14.40;82.80
35700;DHT22;21818;51.078;12.108;2023-04-01T02:11:46;14.40;82.60
35700;DHT22;21818;51.078;12.108;2023-04-01T02:14:18;14.40;82.60
35700;DHT22;21818;51.078;12.108;2023-04-01T02:17:00;14.30;82.90
35700;DHT22;21818;51.078;12.108;2023-04-01T02:19:34;14.30;83.00
35700;DHT22;21818;51.078;12.108;2023-04-01T02:22:03;14.30;82.90
35700;DHT22;21818;51.078;12.108;2023-04-01T02:24:31;14.30;82.90
35700;DHT22;21818;51.078;12.108;2023-04-01T02:26:58;14.20;83.00
35700;DHT22;21818;51.078;12.108;2023-04-01T02:29:26;14.30;83.00
35700;DHT22;21818;51.078;12.108;2023-04-01T02:31:53;14.20;83.20
35700;DHT22;21818;51.078;12.108;2023-04-01T02:34:20;14.20;83.30
35700;DHT22;21818;51.078;12.108;2023-04-01T02:36:47;14.20;83.20
35700;DHT22;21818;51.078;12.108;2023-04-01T02:39:13;14.20;83.20
35700;DHT22;21818;51.078;12.108;2023-04-01T02:41:43;14.20;83.10
35700;DHT22;21818;51.078;12.108;2023-04-01T02:44:10;14.30;83.20
35700;DHT22;21818;51.078;12.108;2023-04-01T02:46:36;14.30;83.20
35700;DHT22;21818;51.078;12.108;2023-04-01T02:49:02;14.20;83.20
35700;DHT22;21818;51.078;12.108;2023-04-01T02:51:28;14.10;83.30
35700;DHT22;21818;51.078;12.108;2023-04-01T02:53:54;14.10;83.60
35700;DHT22;21818;51.078;12.108;2023-04-01T02:56:19;14.00;83.70
35700;DHT22;21818;51.078;12.108;2023-04-01T02:58:45;14.00;83.80
35700;DHT22;21818;51.078;12.108;2023-04-01T03:01:11;14.00;83.70
35700;DHT22;21818;51.078;12.108;2023-04-01T03:03:37;14.00;83.70
35700;DHT22;21818;51.078;12.108;2023-04-01T03:06:11;14.10;83.70
35700;DHT22;21818;51.078;12.108;2023-04-01T03:08:37;14.10;83.50
35700;DHT22;21818;51.078;12.108;2023-04-01T03:11:03;14.10;83.60
35700;DHT22;21818;51.078;12.108;2023-04-01T03:13:29;14.10;83.70
35700;DHT22;21818;51.078;12.108;2023-04-01T03:15:55;14.00;83.70
35700;DHT22;21818;51.078;12.108;2023-04-01T03:18:20;14.00;83.70
35700;DHT22;21818;51.078;12.108;2023-04-01T03:20:46;14.00;83.70
35700;DHT22;21818;51.078;12.108;2023-04-01T03:23:12;14.00;83.60
35700;DHT22;21818;51.078;12.108;2023-04-01T03:25:37;13.90;83.70
35700;DHT22;21818;51.078;12.108;2023-04-01T03:28:03;13.80;83.90
35700;DHT22;21818;51.078;12.108;2023-04-01T03:30:29;13.70;84.00
35700;DHT22;21818;51.078;12.108;2023-04-01T03:32:58;13.70;84.20
35700;DHT22;21818;51.078;12.108;2023-04-01T03:35:25;13.70;84.20
35700;DHT22;21818;51.078;12.108;2023-04-01T03:37:51;13.80;84.10
35700;DHT22;21818;51.078;12.108;2023-04-01T03:40:17;13.80;84.00
35700;DHT22;21818;51.078;12.108;2023-04-01T03:42:42;13.80;84.10
35700;DHT22;21818;51.078;12.108;2023-04-01T03:45:08;13.80;84.10
35700;DHT22;21818;51.078;12.108;2023-04-01T03:47:34;13.80;84.10
35700;DHT22;21818;51.078;12.108;2023-04-01T03:50:00;13.80;84.10
35700;DHT22;21818;51.078;12.108;2023-04-01T03:52:26;13.80;84.20
35700;DHT22;21818;51.078;12.108;2023-04-01T03:54:51;13.80;84.20
35700;DHT22;21818;51.078;12.108;2023-04-01T03:57:17;13.80;84.20
35700;DHT22;21818;51.078;12.108;2023-04-01T03:59:42;13.80;84.30
35700;DHT22;21818;51.078;12.108;2023-04-01T04:02:08;13.80;84.30
35700;DHT22;21818;51.078;12.108;2023-04-01T04:04:33;13.80;84.20
35700;DHT22;21818;51.078;12.108;2023-04-01T04:06:59;13.80;84.10
35700;DHT22;21818;51.078;12.108;2023-04-01T04:09:25;13.80;84.00
35700;DHT22;21818;51.078;12.108;2023-04-01T04:11:50;13.90;84.00
35700;DHT22;21818;51.078;12.108;2023-04-01T04:14:16;13.80;84.00
35700;DHT22;21818;51.078;12.108;2023-04-01T04:16:42;13.90;84.10
35700;DHT22;21818;51.078;12.108;2023-04-01T04:19:08;13.90;84.00
35700;DHT22;21818;51.078;12.108;2023-04-01T04:21:33;13.80;84.10
35700;DHT22;21818;51.078;12.108;2023-04-01T04:24:00;13.80;84.10
35700;DHT22;21818;51.078;12.108;2023-04-01T04:26:26;13.80;84.20
35700;DHT22;21818;51.078;12.108;2023-04-01T04:28:53;13.80;84.20
35700;DHT22;21818;51.078;12.108;2023-04-01T04:31:23;13.80;84.30
35700;DHT22;21818;51.078;12.108;2023-04-01T04:33:49;13.80;84.30
35700;DHT22;21818;51.078;12.108;2023-04-01T04:36:14;13.80;84.10
35700;DHT22;21818;51.078;12.108;2023-04-01T04:38:40;13.80;84.20
35700;DHT22;21818;51.078;12.108;2023-04-01T04:41:10;13.70;84.30
35700;DHT22;21818;51.078;12.108;2023-04-01T04:43:37;13.70;84.40
35700;DHT22;21818;51.078;12.108;2023-04-01T04:46:09;13.70;84.30
35700;DHT22;21818;51.078;12.108;2023-04-01T04:48:36;13.70;84.30
35700;DHT22;21818;51.078;12.108;2023-04-01T04:51:02;13.80;84.20
35700;DHT22;21818;51.078;12.108;2023-04-01T04:53:28;13.80;84.10
35700;DHT22;21818;51.078;12.108;2023-04-01T04:55:54;13.90;84.00
35700;DHT22;21818;51.078;12.108;2023-04-01T04:58:20;13.90;83.90
35700;DHT22;21818;51.078;12.108;2023-04-01T05:00:46;13.90;83.90
35700;DHT22;21818;51.078;12.108;2023-04-01T05:03:12;14.00;83.60
35700;DHT22;21818;51.078;12.108;2023-04-01T05:05:38;14.00;83.70
35700;DHT22;21818;51.078;12.108;2023-04-01T05:08:05;13.90;83.70
35700;DHT22;21818;51.078;12.108;2023-04-01T05:10:30;14.00;83.70
35700;DHT22;21818;51.078;12.108;2023-04-01T05:12:57;14.10;83.60
35700;DHT22;21818;51.078;12.108;2023-04-01T05:15:23;14.10;83.60
35700;DHT22;21818;51.078;12.108;2023-04-01T05:17:48;14.10;83.50
35700;DHT22;21818;51.078;12.108;2023-04-01T05:20:14;14.10;83.50
35700;DHT22;21818;51.078;12.108;2023-04-01T05:22:40;14.10;83.40
35700;DHT22;21818;51.078;12.108;2023-04-01T05:25:06;14.10;83.30
35700;DHT22;21818;51.078;12.108;2023-04-01T05:27:32;14.20;83.20
35700;DHT22;21818;51.078;12.108;2023-04-01T05:29:58;14.20;83.20
35700;DHT22;21818;51.078;12.108;2023-04-01T05:32:23;14.30;82.90
35700;DHT22;21818;51.078;12.108;2023-04-01T05:34:53;14.40;82.80
35700;DHT22;21818;51.078;12.108;2023-04-01T05:37:18;14.30;82.70
35700;DHT22;21818;51.078;12.108;2023-04-01T05:39:44;14.30;82.70
35700;DHT22;21818;51.078;12.108;2023-04-01T05:42:09;14.30;82.60
35700;DHT22;21818;51.078;12.108;2023-04-01T05:44:36;14.30;82.70
35700;DHT22;21818;51.078;12.108;2023-04-01T05:47:03;14.40;82.90
35700;DHT22;21818;51.078;12.108;2023-04-01T05:49:28;14.40;82.30
35700;DHT22;21818;51.078;12.108;2023-04-01T05:51:54;14.40;82.30
35700;DHT22;21818;51.078;12.108;2023-04-01T05:54:20;14.30;82.50
35700;DHT22;21818;51.078;12.108;2023-04-01T05:56:46;14.40;82.40
35700;DHT22;21818;51.078;12.108;2023-04-01T05:59:12;14.40;82.30
35700;DHT22;21818;51.078;12.108;2023-04-01T06:01:38;14.40;82.30
35700;DHT22;21818;51.078;12.108;2023-04-01T06:04:03;14.40;82.20
35700;DHT22;21818;51.078;12.108;2023-04-01T06:06:30;14.40;82.20
35700;DHT22;21818;51.078;12.108;2023-04-01T06:09:01;14.40;82.10
35700;DHT22;21818;51.078;12.108;2023-04-01T06:20:00;14.60;81.60
35700;DHT22;21818;51.078;12.108;2023-04-01T06:22:42;14.50;81.50
35700;DHT22;21818;51.078;12.108;2023-04-01T06:39:29;15.20;80.90
35700;DHT22;21818;51.078;12.108;2023-04-01T06:44:34;15.30;80.70
35700;DHT22;21818;51.078;12.108;2023-04-01T06:50:26;15.40;80.50
35700;DHT22;21818;51.078;12.108;2023-04-01T06:53:35;15.50;80.40
35700;DHT22;21818;51.078;12.108;2023-04-01T06:56:04;15.50;80.10
35700;DHT22;21818;51.078;12.108;2023-04-01T06:58:52;15.60;80.00
35700;DHT22;21818;51.078;12.108;2023-04-01T07:01:22;15.60;79.90
35700;DHT22;21818;51.078;12.108;2023-04-01T07:04:15;15.60;79.80
35700;DHT22;21818;51.078;12.108;2023-04-01T07:06:52;15.70;79.70
35700;DHT22;21818;51.078;12.108;2023-04-01T07:09:22;15.70;79.60
35700;DHT22;21818;51.078;12.108;2023-04-01T07:11:50;15.70;79.40
35700;DHT22;21818;51.078;12.108;2023-04-01T07:14:33;15.80;79.30
35700;DHT22;21818;51.078;12.108;2023-04-01T07:17:08;15.80;79.20
35700;DHT22;21818;51.078;12.108;2023-04-01T07:22:39;15.80;79.10
35700;DHT22;21818;51.078;12.108;2023-04-01T07:25:15;15.90;79.10
35700;DHT22;21818;51.078;12.108;2023-04-01T07:27:43;15.90;79.10
35700;DHT22;21818;51.078;12.108;2023-04-01T07:30:17;15.80;79.00
35700;DHT22;21818;51.078;12.108;2023-04-01T07:32:50;15.80;79.00
35700;DHT22;21818;51.078;12.108;2023-04-01T07:35:22;15.90;79.10
35700;DHT22;21818;51.078;12.108;2023-04-01T07:41:10;15.90;78.80
35700;DHT22;21818;51.078;12.108;2023-04-01T07:43:53;15.90;78.70
35700;DHT22;21818;51.078;12.108;2023-04-01T07:49:25;15.90;78.70
35700;DHT22;21818;51.078;12.108;2023-04-01T07:52:00;15.90;78.60
35700;DHT22;21818;51.078;12.108;2023-04-01T07:57:23;15.90;78.60
35700;DHT22;21818;51.078;12.108;2023-04-01T08:05:29;15.90;78.50
35700;DHT22;21818;51.078;12.108;2023-04-01T08:13:52;15.90;78.50
35700;DHT22;21818;51.078;12.108;2023-04-01T08:16:51;15.90;78.50
35700;DHT22;21818;51.078;12.108;2023-04-01T08:22:10;15.90;78.50
35700;DHT22;21818;51.078;12.108;2023-04-01T08:24:46;15.90;78.60
35700;DHT22;21818;51.078;12.108;2023-04-01T08:27:34;15.90;78.50
35700;DHT22;21818;51.078;12.108;2023-04-01T08:30:15;15.90;78.50
35700;DHT22;21818;51.078;12.108;2023-04-01T08:32:42;15.90;78.40
35700;DHT22;21818;51.078;12.108;2023-04-01T08:35:29;16.00;78.20
35700;DHT22;21818;51.078;12.108;2023-04-01T08:38:00;16.00;78.20
35700;DHT22;21818;51.078;12.108;2023-04-01T08:40:59;16.00;78.10
35700;DHT22;21818;51.078;12.108;2023-04-01T08:43:54;16.10;77.90
35700;DHT22;21818;51.078;12.108;2023-04-01T08:46:53;16.10;77.80
35700;DHT22;21818;51.078;12.108;2023-04-01T08:52:22;16.10;77.80
35700;DHT22;21818;51.078;12.108;2023-04-01T09:00:20;16.10;77.60
35700;DHT22;21818;51.078;12.108;2023-04-01T09:12:18;16.20;77.30
35700;DHT22;21818;51.078;12.108;2023-04-01T09:23:21;16.30;76.70
35700;DHT22;21818;51.078;12.108;2023-04-01T09:39:41;16.50;76.10
35700;DHT22;21818;51.078;12.108;2023-04-01T09:42:25;16.50;76.00
35700;DHT22;21818;51.078;12.108;2023-04-01T09:47:34;16.50;75.80
35700;DHT22;21818;51.078;12.108;2023-04-01T09:52:44;16.60;75.50
35700;DHT22;21818;51.078;12.108;2023-04-01T11:05:58;16.90;73.90
35700;DHT22;21818;51.078;12.108;2023-04-01T11:29:03;16.70;74.90
35700;DHT22;21818;51.078;12.108;2023-04-01T11:31:09;16.60;75.00
35700;DHT22;21818;51.078;12.108;2023-04-01T11:33:47;16.60;75.10
35700;DHT22;21818;51.078;12.108;2023-04-01T11:39:39;16.60;75.30
35700;DHT22;21818;51.078;12.108;2023-04-01T11:47:56;16.60;76.10
35700;DHT22;21818;51.078;12.108;2023-04-01T11:53:26;16.60;75.60
35700;DHT22;21818;51.078;12.108;2023-04-01T12:04:06;16.60;75.90
35700;DHT22;21818;51.078;12.108;2023-04-01T12:14:27;16.60;75.80
35700;DHT22;21818;51.078;12.108;2023-04-01T12:17:27;16.60;75.60
35700;DHT22;21818;51.078;12.108;2023-04-01T12:25:52;16.70;75.40
35700;DHT22;21818;51.078;12.108;2023-04-01T12:28:41;16.70;75.50
35700;DHT22;21818;51.078;12.108;2023-04-01T12:31:42;16.70;75.40
35700;DHT22;21818;51.078;12.108;2023-04-01T12:34:22;16.70;75.40
35700;DHT22;21818;51.078;12.108;2023-04-01T12:37:05;16.80;75.30
35700;DHT22;21818;51.078;12.108;2023-04-01T12:39:48;16.80;75.30
35700;DHT22;21818;51.078;12.108;2023-04-01T12:42:21;16.80;75.20
35700;DHT22;21818;51.078;12.108;2023-04-01T12:54:01;16.90;74.90
35700;DHT22;21818;51.078;12.108;2023-04-01T13:13:48;17.30;74.00
35700;DHT22;21818;51.078;12.108;2023-04-01T13:17:04;17.20;74.10
35700;DHT22;21818;51.078;12.108;2023-04-01T13:19:42;17.20;74.00
35700;DHT22;21818;51.078;12.108;2023-04-01T13:22:26;17.30;73.90
35700;DHT22;21818;51.078;12.108;2023-04-01T13:28:28;17.30;73.70
35700;DHT22;21818;51.078;12.108;2023-04-01T13:32:01;17.30;73.90
35700;DHT22;21818;51.078;12.108;2023-04-01T13:37:10;17.20;74.00
35700;DHT22;21818;51.078;12.108;2023-04-01T13:42:32;17.20;74.20
35700;DHT22;21818;51.078;12.108;2023-04-01T13:45:14;17.10;74.20
35700;DHT22;21818;51.078;12.108;2023-04-01T13:56:01;17.20;74.10
35700;DHT22;21818;51.078;12.108;2023-04-01T14:15:08;17.20;73.80
35700;DHT22;21818;51.078;12.108;2023-04-01T14:20:40;17.30;73.70
35700;DHT22;21818;51.078;12.108;2023-04-01T14:35:21;17.30;73.30
35700;DHT22;21818;51.078;12.108;2023-04-01T14:37:54;17.30;73.10
35700;DHT22;21818;51.078;12.108;2023-04-01T14:51:45;17.40;72.80
35700;DHT22;21818;51.078;12.108;2023-04-01T14:54:13;17.40;72.90
35700;DHT22;21818;51.078;12.108;2023-04-01T14:56:50;17.40;73.00
35700;DHT22;21818;51.078;12.108;2023-04-01T15:02:15;17.20;73.20
35700;DHT22;21818;51.078;12.108;2023-04-01T15:18:25;17.00;73.70
35700;DHT22;21818;51.078;12.108;2023-04-01T15:31:54;16.90;74.50
35700;DHT22;21818;51.078;12.108;2023-04-01T15:34:29;16.90;74.40
35700;DHT22;21818;51.078;12.108;2023-04-01T15:53:18;16.80;74.30
35700;DHT22;21818;51.078;12.108;2023-04-01T16:09:33;16.70;74.50
35700;DHT22;21818;51.078;12.108;2023-04-01T16:12:30;16.70;74.60
35700;DHT22;21818;51.078;12.108;2023-04-01T16:18:25;16.70;74.60
35700;DHT22;21818;51.078;12.108;2023-04-01T16:23:47;16.60;74.60
35700;DHT22;21818;51.078;12.108;2023-04-01T16:29:25;16.60;74.70
35700;DHT22;21818;51.078;12.108;2023-04-01T16:34:40;16.60;74.80
35700;DHT22;21818;51.078;12.108;2023-04-01T16:37:17;16.60;74.80
35700;DHT22;21818;51.078;12.108;2023-04-01T16:42:48;16.60;74.80
35700;DHT22;21818;51.078;12.108;2023-04-01T16:45:37;16.50;74.70
35700;DHT22;21818;51.078;12.108;2023-04-01T16:48:16;16.50;74.80
35700;DHT22;21818;51.078;12.108;2023-04-01T16:51:11;16.50;74.80
35700;DHT22;21818;51.078;12.108;2023-04-01T16:54:10;16.50;74.80
35700;DHT22;21818;51.078;12.108;2023-04-01T16:56:50;16.50;74.90
35700;DHT22;21818;51.078;12.108;2023-04-01T16:59:33;16.50;74.90
35700;DHT22;21818;51.078;12.108;2023-04-01T17:04:44;16.50;75.00
35700;DHT22;21818;51.078;12.108;2023-04-01T17:07:32;16.50;75.00
35700;DHT22;21818;51.078;12.108;2023-04-01T17:18:33;16.50;75.10
35700;DHT22;21818;51.078;12.108;2023-04-01T17:23:43;16.40;75.10
35700;DHT22;21818;51.078;12.108;2023-04-01T17:26:17;16.40;75.10
35700;DHT22;21818;51.078;12.108;2023-04-01T17:37:19;16.40;75.30
35700;DHT22;21818;51.078;12.108;2023-04-01T17:45:58;16.30;75.40
35700;DHT22;21818;51.078;12.108;2023-04-01T17:48:44;16.30;75.40
35700;DHT22;21818;51.078;12.108;2023-04-01T17:51:42;16.30;75.40
35700;DHT22;21818;51.078;12.108;2023-04-01T18:02:26;16.30;75.50
35700;DHT22;21818;51.078;12.108;2023-04-01T18:24:44;16.30;75.70
35700;DHT22;21818;51.078;12.108;2023-04-01T18:27:33;16.20;75.60
35700;DHT22;21818;51.078;12.108;2023-04-01T18:30:22;16.20;75.70
35700;DHT22;21818;51.078;12.108;2023-04-01T18:38:52;16.20;75.80
35700;DHT22;21818;51.078;12.108;2023-04-01T18:44:55;16.20;75.90
35700;DHT22;21818;51.078;12.108;2023-04-01T18:55:55;16.20;75.90
35700;DHT22;21818;51.078;12.108;2023-04-01T18:58:35;16.20;75.90
35700;DHT22;21818;51.078;12.108;2023-04-01T19:01:26;16.20;75.90
35700;DHT22;21818;51.078;12.108;2023-04-01T19:04:03;16.20;75.90
35700;DHT22;21818;51.078;12.108;2023-04-01T19:06:41;16.20;75.90
35700;DHT22;21818;51.078;12.108;2023-04-01T19:09:31;16.20;76.00
35700;DHT22;21818;51.078;12.108;2023-04-01T19:12:31;16.20;75.90
35700;DHT22;21818;51.078;12.108;2023-04-01T19:15:02;16.20;75.90
35700;DHT22;21818;51.078;12.108;2023-04-01T19:25:23;16.20;75.90
35700;DHT22;21818;51.078;12.108;2023-04-01T19:27:53;16.20;76.00
35700;DHT22;21818;51.078;12.108;2023-04-01T19:42:01;16.20;76.10
35700;DHT22;21818;51.078;12.108;2023-04-01T19:47:03;16.20;76.10
35700;DHT22;21818;51.078;12.108;2023-04-01T19:52:41;16.20;76.10
35700;DHT22;21818;51.078;12.108;2023-04-01T19:55:32;16.20;76.10
35700;DHT22;21818;51.078;12.108;2023-04-01T19:58:06;16.20;76.60
35700;DHT22;21818;51.078;12.108;2023-04-01T20:00:47;16.20;76.10
35700;DHT22;21818;51.078;12.108;2023-04-01T20:03:21;16.20;76.10
35700;DHT22;21818;51.078;12.108;2023-04-01T20:06:02;16.20;76.10
35700;DHT22;21818;51.078;12.108;2023-04-01T20:11:44;16.20;76.10
35700;DHT22;21818;51.078;12.108;2023-04-01T20:14:29;16.20;76.10
35700;DHT22;21818;51.078;12.108;2023-04-01T20:19:55;16.20;76.10
35700;DHT22;21818;51.078;12.108;2023-04-01T20:25:15;16.20;76.10
35700;DHT22;21818;51.078;12.108;2023-04-01T20:27:47;16.20;76.10
35700;DHT22;21818;51.078;12.108;2023-04-01T20:30:37;16.20;76.20
35700;DHT22;21818;51.078;12.108;2023-04-01T20:50:19;16.20;76.20
35700;DHT22;21818;51.078;12.108;2023-04-01T20:53:04;16.20;76.20
35700;DHT22;21818;51.078;12.108;2023-04-01T20:55:57;16.10;76.40
35700;DHT22;21818;51.078;12.108;2023-04-01T21:06:57;14.80;80.60
35700;DHT22;21818;51.078;12.108;2023-04-01T21:12:40;14.50;81.80
35700;DHT22;21818;51.078;12.108;2023-04-01T21:29:20;14.20;83.30
35700;DHT22;21818;51.078;12.108;2023-04-01T21:35:08;14.20;83.70
35700;DHT22;21818;51.078;12.108;2023-04-01T21:46:43;14.20;84.20
35700;DHT22;21818;51.078;12.108;2023-04-01T22:03:48;14.10;84.50
35700;DHT22;21818;51.078;12.108;2023-04-01T22:06:31;14.00;84.80
35700;DHT22;21818;51.078;12.108;2023-04-01T22:09:38;14.00;84.70
35700;DHT22;21818;51.078;12.108;2023-04-01T22:14:47;14.00;84.80
35700;DHT22;21818;51.078;12.108;2023-04-01T22:17:31;14.00;85.00
35700;DHT22;21818;51.078;12.108;2023-04-01T22:25:46;13.90;85.10
35700;DHT22;21818;51.078;12.108;2023-04-01T22:28:23;13.90;85.10
35700;DHT22;21818;51.078;12.108;2023-04-01T22:30:58;13.90;85.10
35700;DHT22;21818;51.078;12.108;2023-04-01T22:50:21;13.80;85.20
35700;DHT22;21818;51.078;12.108;2023-04-01T22:55:40;13.90;85.00
35700;DHT22;21818;51.078;12.108;2023-04-01T22:58:12;13.70;85.30
35700;DHT22;21818;51.078;12.108;2023-04-01T23:00:44;13.60;85.50
35700;DHT22;21818;51.078;12.108;2023-04-01T23:03:23;13.60;85.60
35700;DHT22;21818;51.078;12.108;2023-04-01T23:05:53;13.60;85.60
35700;DHT22;21818;51.078;12.108;2023-04-01T23:08:32;13.50;85.70
35700;DHT22;21818;51.078;12.108;2023-04-01T23:11:04;13.50;85.90
35700;DHT22;21818;51.078;12.108;2023-04-01T23:13:43;13.60;85.70
35700;DHT22;21818;51.078;12.108;2023-04-01T23:16:10;13.50;85.70
35700;DHT22;21818;51.078;12.108;2023-04-01T23:24:07;13.40;85.70
35700;DHT22;21818;51.078;12.108;2023-04-01T23:27:06;13.50;85.50
35700;DHT22;21818;51.078;12.108;2023-04-01T23:29:36;13.50;85.60
35700;DHT22;21818;51.078;12.108;2023-04-01T23:32:05;13.40;85.60
35700;DHT22;21818;51.078;12.108;2023-04-01T23:34:38;13.40;85.80
35700;DHT22;21818;51.078;12.108;2023-04-01T23:37:08;13.30;85.90
35700;DHT22;21818;51.078;12.108;2023-04-01T23:39:40;13.20;86.00
35700;DHT22;21818;51.078;12.108;2023-04-01T23:42:20;13.10;86.10
35700;DHT22;21818;51.078;12.108;2023-04-01T23:44:48;13.10;86.40
35700;DHT22;21818;51.078;12.108;2023-04-01T23:47:23;13.10;86.40
35700;DHT22;21818;51.078;12.108;2023-04-01T23:50:06;13.10;86.10
35700;DHT22;21818;51.078;12.108;2023-04-01T23:52:59;13.10;86.00
35700;DHT22;21818;51.078;12.108;2023-04-01T23:55:28;13.10;86.00
35700;DHT22;21818;51.078;12.108;2023-04-01T23:58:21;13.00;86.00
